sensor_id;sensor_type;location;lat;lon;timestamp;pressure;altitude;pressure_sealevel;temperature;humidity
22755;BME280;11544;42.020;23.094;2023-04-20T00:02:17;96793.66;;;11.07;87.19
22755;BME280;11544;42.020;23.094;2023-04-20T00:04:49;96790.41;;;11.41;86.82
22755;BME280;11544;42.020;23.094;2023-04-20T00:07:36;96788.28;;;11.31;86.43
22755;BME280;11544;42.020;23.094;2023-04-20T00:10:09;96796.59;;;11.20;88.14
22755;BME280;11544;42.020;23.094;2023-04-20T00:12:38;96781.84;;;11.19;88.04
22755;BME280;11544;42.020;23.094;2023-04-20T00:15:05;96790.69;;;11.35;88.02
22755;BME280;11544;42.020;23.094;2023-04-20T00:17:33;96793.41;;;11.13;88.63
22755;BME280;11544;42.020;23.094;2023-04-20T00:20:00;96787.59;;;11.27;88.08
22755;BME280;11544;42.020;23.094;2023-04-20T00:22:27;96791.66;;;10.93;90.27
22755;BME280;11544;42.020;23.094;2023-04-20T00:24:56;96789.91;;;10.94;90.10
22755;BME280;11544;42.020;23.094;2023-04-20T00:27:23;96793.44;;;11.32;88.08
22755;BME280;11544;42.020;23.094;2023-04-20T00:29:50;96798.38;;;10.78;90.60
22755;BME280;11544;42.020;23.094;2023-04-20T00:32:17;96788.22;;;10.52;92.86
22755;BME280;11544;42.020;23.094;2023-04-20T00:34:44;96788.94;;;10.55;92.87
22755;BME280;11544;42.020;23.094;2023-04-20T00:37:11;96784.00;;;10.49;95.48
22755;BME280;11544;42.020;23.094;2023-04-20T00:39:38;96784.22;;;10.84;93.90
22755;BME280;11544;42.020;23.094;2023-04-20T00:42:07;96779.28;;;10.98;93.63
22755;BME280;11544;42.020;23.094;2023-04-20T00:44:34;96787.72;;;10.85;94.27
22755;BME280;11544;42.020;23.094;2023-04-20T00:47:01;96787.81;;;10.81;94.78
22755;BME280;11544;42.020;23.094;2023-04-20T00:49:29;96781.91;;;10.78;93.19
22755;BME280;11544;42.020;23.094;2023-04-20T00:51:57;96778.22;;;10.63;93.46
22755;BME280;11544;42.020;23.094;2023-04-20T00:54:28;96784.00;;;10.49;95.84
22755;BME280;11544;42.020;23.094;2023-04-20T00:56:58;96783.81;;;10.54;96.05
22755;BME280;11544;42.020;23.094;2023-04-20T00:59:26;96783.97;;;10.70;95.41
22755;BME280;11544;42.020;23.094;2023-04-20T01:01:56;96775.06;;;10.75;94.07
22755;BME280;11544;42.020;23.094;2023-04-20T01:04:28;96779.09;;;10.62;96.42
22755;BME280;11544;42.020;23.094;2023-04-20T01:06:55;96782.50;;;10.64;95.70
22755;BME280;11544;42.020;23.094;2023-04-20T01:09:22;96775.06;;;10.55;96.30
22755;BME280;11544;42.020;23.094;2023-04-20T01:11:49;96785.25;;;10.61;95.94
22755;BME280;11544;42.020;23.094;2023-04-20T01:14:16;96777.34;;;10.63;95.13
22755;BME280;11544;42.020;23.094;2023-04-20T01:16:43;96768.78;;;10.38;96.61
22755;BME280;11544;42.020;23.094;2023-04-20T01:19:10;96773.41;;;10.10;98.35
22755;BME280;11544;42.020;23.094;2023-04-20T01:21:39;96774.28;;;10.53;97.79
22755;BME280;11544;42.020;23.094;2023-04-20T01:24:06;96769.06;;;10.53;96.36
22755;BME280;11544;42.020;23.094;2023-04-20T01:26:36;96771.81;;;10.50;96.60
22755;BME280;11544;42.020;23.094;2023-04-20T01:29:03;96770.41;;;10.41;95.84
22755;BME280;11544;42.020;23.094;2023-04-20T01:31:30;96773.09;;;10.80;94.88
22755;BME280;11544;42.020;23.094;2023-04-20T01:33:57;96777.41;;;10.61;95.40
22755;BME280;11544;42.020;23.094;2023-04-20T01:36:24;96780.19;;;10.36;95.94
22755;BME280;11544;42.020;23.094;2023-04-20T01:38:51;96779.66;;;10.06;98.28
22755;BME280;11544;42.020;23.094;2023-04-20T01:41:19;96773.63;;;10.48;97.43
22755;BME280;11544;42.020;23.094;2023-04-20T01:43:46;96781.22;;;10.32;96.62
22755;BME280;11544;42.020;23.094;2023-04-20T01:46:16;96775.91;;;10.35;96.55
22755;BME280;11544;42.020;23.094;2023-04-20T01:48:44;96777.00;;;10.29;97.06
22755;BME280;11544;42.020;23.094;2023-04-20T01:51:11;96774.53;;;10.25;96.26
22755;BME280;11544;42.020;23.094;2023-04-20T01:53:38;96774.38;;;10.07;96.99
22755;BME280;11544;42.020;23.094;2023-04-20T01:56:05;96767.97;;;10.58;96.06
22755;BME280;11544;42.020;23.094;2023-04-20T01:58:32;96763.66;;;10.57;94.89
22755;BME280;11544;42.020;23.094;2023-04-20T02:01:02;96763.84;;;10.32;95.01
22755;BME280;11544;42.020;23.094;2023-04-20T02:03:32;96766.78;;;10.45;95.78
22755;BME280;11544;42.020;23.094;2023-04-20T02:06:17;96768.28;;;10.30;95.94
22755;BME280;11544;42.020;23.094;2023-04-20T02:08:59;96759.63;;;10.50;94.15
22755;BME280;11544;42.020;23.094;2023-04-20T02:12:09;96756.38;;;10.45;95.43
22755;BME280;11544;42.020;23.094;2023-04-20T02:14:37;96753.16;;;10.38;94.98
22755;BME280;11544;42.020;23.094;2023-04-20T02:17:09;96760.72;;;10.45;94.38
22755;BME280;11544;42.020;23.094;2023-04-20T02:22:23;96765.41;;;10.14;96.22
22755;BME280;11544;42.020;23.094;2023-04-20T02:25:09;96758.31;;;10.18;96.41
22755;BME280;11544;42.020;23.094;2023-04-20T02:27:36;96762.28;;;10.06;97.44
22755;BME280;11544;42.020;23.094;2023-04-20T02:30:03;96771.72;;;10.31;97.07
22755;BME280;11544;42.020;23.094;2023-04-20T02:32:31;96758.00;;;10.48;95.08
22755;BME280;11544;42.020;23.094;2023-04-20T02:34:59;96762.75;;;10.38;95.94
22755;BME280;11544;42.020;23.094;2023-04-20T02:37:26;96757.53;;;10.38;96.15
22755;BME280;11544;42.020;23.094;2023-04-20T02:39:53;96755.25;;;10.30;95.46
22755;BME280;11544;42.020;23.094;2023-04-20T02:42:20;96749.66;;;10.60;94.88
22755;BME280;11544;42.020;23.094;2023-04-20T02:44:50;96760.38;;;10.10;96.15
22755;BME280;11544;42.020;23.094;2023-04-20T02:47:18;96756.88;;;10.53;96.79
22755;BME280;11544;42.020;23.094;2023-04-20T02:49:45;96754.66;;;10.65;97.56
22755;BME280;11544;42.020;23.094;2023-04-20T02:52:13;96757.75;;;10.54;98.18
22755;BME280;11544;42.020;23.094;2023-04-20T02:54:40;96760.72;;;10.45;99.12
22755;BME280;11544;42.020;23.094;2023-04-20T02:57:10;96764.88;;;10.69;98.64
22755;BME280;11544;42.020;23.094;2023-04-20T02:59:37;96770.81;;;10.32;96.98
22755;BME280;11544;42.020;23.094;2023-04-20T03:02:04;96754.06;;;10.58;95.42
22755;BME280;11544;42.020;23.094;2023-04-20T03:04:45;96756.97;;;10.52;93.54
22755;BME280;11544;42.020;23.094;2023-04-20T03:07:16;96760.84;;;10.62;94.42
22755;BME280;11544;42.020;23.094;2023-04-20T03:09:44;96765.16;;;10.43;94.89
22755;BME280;11544;42.020;23.094;2023-04-20T03:12:11;96765.78;;;10.89;93.35
22755;BME280;11544;42.020;23.094;2023-04-20T03:14:38;96758.72;;;10.51;93.16
22755;BME280;11544;42.020;23.094;2023-04-20T03:17:05;96764.25;;;10.64;93.54
22755;BME280;11544;42.020;23.094;2023-04-20T03:19:32;96768.94;;;10.56;93.20
22755;BME280;11544;42.020;23.094;2023-04-20T03:22:00;96763.47;;;10.62;92.67
22755;BME280;11544;42.020;23.094;2023-04-20T03:24:26;96779.25;;;10.59;93.68
22755;BME280;11544;42.020;23.094;2023-04-20T03:26:54;96782.78;;;10.36;96.35
22755;BME280;11544;42.020;23.094;2023-04-20T03:29:21;96781.84;;;10.59;95.39
22755;BME280;11544;42.020;23.094;2023-04-20T03:31:48;96790.28;;;10.44;95.33
22755;BME280;11544;42.020;23.094;2023-04-20T03:34:15;96789.63;;;10.38;96.22
22755;BME280;11544;42.020;23.094;2023-04-20T03:36:42;96791.47;;;10.57;96.34
22755;BME280;11544;42.020;23.094;2023-04-20T03:39:09;96793.53;;;10.28;99.63
22755;BME280;11544;42.020;23.094;2023-04-20T03:42:00;96793.09;;;10.39;100.00
22755;BME280;11544;42.020;23.094;2023-04-20T03:45:04;96792.19;;;10.60;99.16
22755;BME280;11544;42.020;23.094;2023-04-20T03:47:32;96792.31;;;10.57;99.65
22755;BME280;11544;42.020;23.094;2023-04-20T03:49:59;96799.38;;;10.76;99.76
22755;BME280;11544;42.020;23.094;2023-04-20T03:52:27;96792.44;;;10.95;98.89
22755;BME280;11544;42.020;23.094;2023-04-20T03:55:28;96801.25;;;10.93;99.21
22755;BME280;11544;42.020;23.094;2023-04-20T03:57:55;96807.91;;;10.79;99.35
22755;BME280;11544;42.020;23.094;2023-04-20T04:00:35;96805.97;;;10.85;96.37
22755;BME280;11544;42.020;23.094;2023-04-20T04:03:02;96796.56;;;11.01;94.03
22755;BME280;11544;42.020;23.094;2023-04-20T04:05:37;96803.06;;;10.91;95.74
22755;BME280;11544;42.020;23.094;2023-04-20T04:08:07;96805.63;;;10.72;95.91
22755;BME280;11544;42.020;23.094;2023-04-20T04:10:34;96812.19;;;10.60;96.36
22755;BME280;11544;42.020;23.094;2023-04-20T04:13:07;96814.28;;;10.72;95.70
22755;BME280;11544;42.020;23.094;2023-04-20T04:18:24;96827.91;;;10.58;98.86
22755;BME280;11544;42.020;23.094;2023-04-20T04:20:54;96825.69;;;10.49;99.67
22755;BME280;11544;42.020;23.094;2023-04-20T04:23:21;96824.72;;;10.52;100.00
22755;BME280;11544;42.020;23.094;2023-04-20T04:28:22;96834.34;;;10.50;100.00
22755;BME280;11544;42.020;23.094;2023-04-20T04:31:13;96824.63;;;10.53;100.00
22755;BME280;11544;42.020;23.094;2023-04-20T04:34:01;96829.22;;;10.69;99.85
22755;BME280;11544;42.020;23.094;2023-04-20T04:36:30;96830.00;;;10.71;99.55
22755;BME280;11544;42.020;23.094;2023-04-20T04:38:58;96832.94;;;10.63;99.36
22755;BME280;11544;42.020;23.094;2023-04-20T04:41:31;96826.41;;;10.73;99.94
22755;BME280;11544;42.020;23.094;2023-04-20T04:44:12;96832.44;;;10.53;100.00
22755;BME280;11544;42.020;23.094;2023-04-20T04:46:42;96838.63;;;10.51;100.00
22755;BME280;11544;42.020;23.094;2023-04-20T04:49:17;96834.16;;;10.54;100.00
22755;BME280;11544;42.020;23.094;2023-04-20T04:51:46;96835.94;;;10.95;100.00
22755;BME280;11544;42.020;23.094;2023-04-20T04:54:33;96844.94;;;10.88;100.00
22755;BME280;11544;42.020;23.094;2023-04-20T04:57:11;96832.59;;;10.91;100.00
22755;BME280;11544;42.020;23.094;2023-04-20T04:59:42;96837.56;;;10.97;98.66
22755;BME280;11544;42.020;23.094;2023-04-20T05:02:11;96842.13;;;10.51;100.00
22755;BME280;11544;42.020;23.094;2023-04-20T05:04:59;96851.50;;;10.76;100.00
22755;BME280;11544;42.020;23.094;2023-04-20T05:07:27;96843.50;;;11.01;98.92
22755;BME280;11544;42.020;23.094;2023-04-20T05:09:54;96840.50;;;10.90;99.50
22755;BME280;11544;42.020;23.094;2023-04-20T05:12:21;96836.59;;;11.39;95.61
22755;BME280;11544;42.020;23.094;2023-04-20T05:14:50;96834.22;;;11.14;96.13
22755;BME280;11544;42.020;23.094;2023-04-20T05:17:21;96838.78;;;10.89;98.88
22755;BME280;11544;42.020;23.094;2023-04-20T05:19:53;96834.00;;;11.39;95.98
22755;BME280;11544;42.020;23.094;2023-04-20T05:22:20;96838.78;;;11.09;97.01
22755;BME280;11544;42.020;23.094;2023-04-20T05:24:47;96833.28;;;11.55;94.21
22755;BME280;11544;42.020;23.094;2023-04-20T05:27:14;96835.69;;;10.80;97.17
22755;BME280;11544;42.020;23.094;2023-04-20T05:29:41;96842.00;;;10.95;99.39
22755;BME280;11544;42.020;23.094;2023-04-20T05:32:08;96843.50;;;11.01;99.41
22755;BME280;11544;42.020;23.094;2023-04-20T05:34:35;96848.38;;;10.88;100.00
22755;BME280;11544;42.020;23.094;2023-04-20T05:37:03;96853.16;;;10.99;100.00
22755;BME280;11544;42.020;23.094;2023-04-20T05:39:31;96852.75;;;11.08;100.00
22755;BME280;11544;42.020;23.094;2023-04-20T05:41:58;96855.88;;;11.16;99.06
22755;BME280;11544;42.020;23.094;2023-04-20T05:44:27;96860.69;;;11.05;100.00
22755;BME280;11544;42.020;23.094;2023-04-20T05:46:54;96864.81;;;11.11;100.00
22755;BME280;11544;42.020;23.094;2023-04-20T05:49:22;96861.91;;;11.37;98.41
22755;BME280;11544;42.020;23.094;2023-04-20T05:51:49;96855.97;;;11.34;96.22
22755;BME280;11544;42.020;23.094;2023-04-20T05:54:16;96854.34;;;11.31;97.02
22755;BME280;11544;42.020;23.094;2023-04-20T05:56:44;96847.69;;;11.44;95.77
22755;BME280;11544;42.020;23.094;2023-04-20T05:59:14;96854.09;;;11.37;96.71
22755;BME280;11544;42.020;23.094;2023-04-20T06:01:42;96862.50;;;11.44;96.12
22755;BME280;11544;42.020;23.094;2023-04-20T06:04:09;96860.22;;;11.95;93.58
22755;BME280;11544;42.020;23.094;2023-04-20T06:06:39;96849.25;;;11.86;93.77
22755;BME280;11544;42.020;23.094;2023-04-20T06:09:09;96845.91;;;12.03;92.40
22755;BME280;11544;42.020;23.094;2023-04-20T06:11:37;96848.03;;;12.32;91.26
22755;BME280;11544;42.020;23.094;2023-04-20T06:14:03;96843.38;;;12.73;89.41
22755;BME280;11544;42.020;23.094;2023-04-20T06:16:30;96831.47;;;13.02;86.92
22755;BME280;11544;42.020;23.094;2023-04-20T06:18:58;96839.25;;;12.69;84.18
22755;BME280;11544;42.020;23.094;2023-04-20T06:21:24;96837.06;;;13.12;85.40
22755;BME280;11544;42.020;23.094;2023-04-20T06:23:52;96832.69;;;14.11;79.71
22755;BME280;11544;42.020;23.094;2023-04-20T06:26:19;96819.94;;;14.97;72.67
22755;BME280;11544;42.020;23.094;2023-04-20T06:28:47;96818.66;;;14.74;71.96
22755;BME280;11544;42.020;23.094;2023-04-20T06:31:14;96818.19;;;14.51;73.26
22755;BME280;11544;42.020;23.094;2023-04-20T06:33:43;96820.69;;;15.13;71.40
22755;BME280;11544;42.020;23.094;2023-04-20T06:36:10;96820.13;;;14.64;71.50
22755;BME280;11544;42.020;23.094;2023-04-20T06:38:40;96816.56;;;15.09;68.77
22755;BME280;11544;42.020;23.094;2023-04-20T06:41:07;96808.72;;;15.66;61.10
22755;BME280;11544;42.020;23.094;2023-04-20T06:43:34;96816.91;;;15.76;61.32
22755;BME280;11544;42.020;23.094;2023-04-20T06:46:01;96821.75;;;15.25;65.46
22755;BME280;11544;42.020;23.094;2023-04-20T06:48:28;96818.50;;;15.79;63.26
22755;BME280;11544;42.020;23.094;2023-04-20T06:50:58;96821.38;;;16.30;62.62
22755;BME280;11544;42.020;23.094;2023-04-20T06:53:26;96809.13;;;16.83;59.41
22755;BME280;11544;42.020;23.094;2023-04-20T06:55:54;96818.31;;;16.23;59.79
22755;BME280;11544;42.020;23.094;2023-04-20T06:58:21;96818.69;;;15.61;62.64
22755;BME280;11544;42.020;23.094;2023-04-20T07:00:50;96818.66;;;16.99;57.99
22755;BME280;11544;42.020;23.094;2023-04-20T07:03:17;96813.31;;;16.46;61.13
22755;BME280;11544;42.020;23.094;2023-04-20T07:05:45;96825.22;;;15.40;63.12
22755;BME280;11544;42.020;23.094;2023-04-20T07:08:12;96826.09;;;15.26;63.52
22755;BME280;11544;42.020;23.094;2023-04-20T07:10:42;96812.88;;;16.39;60.32
22755;BME280;11544;42.020;23.094;2023-04-20T07:13:08;96823.78;;;16.06;60.74
22755;BME280;11544;42.020;23.094;2023-04-20T07:15:46;96825.97;;;15.56;63.16
22755;BME280;11544;42.020;23.094;2023-04-20T07:18:13;96831.50;;;15.23;63.39
22755;BME280;11544;42.020;23.094;2023-04-20T07:20:40;96830.31;;;14.84;65.14
22755;BME280;11544;42.020;23.094;2023-04-20T07:23:07;96828.25;;;14.89;63.58
22755;BME280;11544;42.020;23.094;2023-04-20T07:25:43;96830.31;;;14.84;64.86
22755;BME280;11544;42.020;23.094;2023-04-20T07:28:10;96839.44;;;14.47;67.38
22755;BME280;11544;42.020;23.094;2023-04-20T07:30:37;96838.72;;;14.75;66.45
22755;BME280;11544;42.020;23.094;2023-04-20T07:33:04;96841.09;;;14.64;67.34
22755;BME280;11544;42.020;23.094;2023-04-20T07:35:31;96830.72;;;14.46;68.87
22755;BME280;11544;42.020;23.094;2023-04-20T07:37:59;96828.06;;;14.92;66.64
22755;BME280;11544;42.020;23.094;2023-04-20T07:40:26;96831.44;;;14.94;66.36
22755;BME280;11544;42.020;23.094;2023-04-20T07:42:53;96828.50;;;15.15;66.28
22755;BME280;11544;42.020;23.094;2023-04-20T07:45:23;96834.13;;;15.66;64.27
22755;BME280;11544;42.020;23.094;2023-04-20T07:47:49;96829.44;;;15.28;61.93
22755;BME280;11544;42.020;23.094;2023-04-20T07:50:17;96830.84;;;15.19;63.58
22755;BME280;11544;42.020;23.094;2023-04-20T07:52:45;96831.41;;;15.39;59.96
22755;BME280;11544;42.020;23.094;2023-04-20T07:55:12;96829.28;;;14.87;60.59
22755;BME280;11544;42.020;23.094;2023-04-20T07:57:40;96825.22;;;15.54;60.10
22755;BME280;11544;42.020;23.094;2023-04-20T08:00:16;96823.66;;;15.80;59.09
22755;BME280;11544;42.020;23.094;2023-04-20T08:02:43;96828.38;;;16.17;56.80
22755;BME280;11544;42.020;23.094;2023-04-20T08:05:11;96821.28;;;15.33;53.46
22755;BME280;11544;42.020;23.094;2023-04-20T08:07:38;96823.75;;;15.50;54.62
22755;BME280;11544;42.020;23.094;2023-04-20T08:10:06;96819.28;;;16.08;54.08
22755;BME280;11544;42.020;23.094;2023-04-20T08:12:33;96820.16;;;15.65;52.82
22755;BME280;11544;42.020;23.094;2023-04-20T08:15:03;96823.47;;;15.55;52.88
22755;BME280;11544;42.020;23.094;2023-04-20T08:18:09;96814.44;;;15.59;53.56
22755;BME280;11544;42.020;23.094;2023-04-20T08:20:42;96810.50;;;15.95;54.29
22755;BME280;11544;42.020;23.094;2023-04-20T08:23:25;96820.28;;;15.64;51.36
22755;BME280;11544;42.020;23.094;2023-04-20T08:26:25;96808.81;;;15.51;53.37
22755;BME280;11544;42.020;23.094;2023-04-20T08:28:53;96805.91;;;15.84;52.59
22755;BME280;11544;42.020;23.094;2023-04-20T08:31:37;96812.25;;;16.36;51.49
22755;BME280;11544;42.020;23.094;2023-04-20T08:34:16;96813.09;;;16.09;50.86
22755;BME280;11544;42.020;23.094;2023-04-20T08:36:43;96805.63;;;15.88;50.56
22755;BME280;11544;42.020;23.094;2023-04-20T08:39:13;96799.03;;;16.50;50.46
22755;BME280;11544;42.020;23.094;2023-04-20T08:41:40;96802.72;;;16.87;49.69
22755;BME280;11544;42.020;23.094;2023-04-20T08:44:10;96807.25;;;17.49;49.43
22755;BME280;11544;42.020;23.094;2023-04-20T08:52:45;96793.41;;;16.69;50.14
22755;BME280;11544;42.020;23.094;2023-04-20T09:06:49;96796.50;;;15.80;52.09
22755;BME280;11544;42.020;23.094;2023-04-20T09:09:30;96796.97;;;15.86;50.76
22755;BME280;11544;42.020;23.094;2023-04-20T09:12:16;96799.91;;;15.39;52.35
22755;BME280;11544;42.020;23.094;2023-04-20T09:14:48;96794.72;;;15.52;51.97
22755;BME280;11544;42.020;23.094;2023-04-20T09:17:17;96795.88;;;15.62;52.26
22755;BME280;11544;42.020;23.094;2023-04-20T09:23:29;96798.72;;;15.73;54.36
22755;BME280;11544;42.020;23.094;2023-04-20T09:25:56;96800.38;;;15.45;52.70
22755;BME280;11544;42.020;23.094;2023-04-20T09:28:34;96792.03;;;15.24;53.53
22755;BME280;11544;42.020;23.094;2023-04-20T09:31:03;96803.00;;;15.02;54.05
22755;BME280;11544;42.020;23.094;2023-04-20T09:33:33;96798.38;;;15.06;54.22
22755;BME280;11544;42.020;23.094;2023-04-20T09:36:08;96797.63;;;15.04;54.21
22755;BME280;11544;42.020;23.094;2023-04-20T09:38:36;96795.47;;;14.96;54.43
22755;BME280;11544;42.020;23.094;2023-04-20T09:41:04;96795.19;;;15.01;54.05
22755;BME280;11544;42.020;23.094;2023-04-20T09:43:33;96803.41;;;14.80;55.42
22755;BME280;11544;42.020;23.094;2023-04-20T09:46:08;96803.28;;;14.68;54.72
22755;BME280;11544;42.020;23.094;2023-04-20T09:48:38;96800.84;;;14.49;55.13
22755;BME280;11544;42.020;23.094;2023-04-20T09:51:06;96792.06;;;14.80;55.77
22755;BME280;11544;42.020;23.094;2023-04-20T09:53:33;96797.38;;;15.23;54.07
22755;BME280;11544;42.020;23.094;2023-04-20T09:56:01;96800.53;;;14.99;53.85
22755;BME280;11544;42.020;23.094;2023-04-20T09:58:31;96783.41;;;15.22;53.45
22755;BME280;11544;42.020;23.094;2023-04-20T10:00:58;96788.06;;;15.03;53.26
22755;BME280;11544;42.020;23.094;2023-04-20T10:03:25;96791.19;;;15.10;53.13
22755;BME280;11544;42.020;23.094;2023-04-20T10:05:52;96789.22;;;15.28;52.77
22755;BME280;11544;42.020;23.094;2023-04-20T10:08:21;96788.44;;;15.54;52.52
22755;BME280;11544;42.020;23.094;2023-04-20T10:10:49;96795.75;;;14.92;52.81
22755;BME280;11544;42.020;23.094;2023-04-20T10:13:18;96789.47;;;15.09;52.82
22755;BME280;11544;42.020;23.094;2023-04-20T10:15:47;96782.56;;;14.63;53.19
22755;BME280;11544;42.020;23.094;2023-04-20T10:18:15;96786.28;;;14.89;53.28
22755;BME280;11544;42.020;23.094;2023-04-20T10:20:43;96781.53;;;15.24;52.42
22755;BME280;11544;42.020;23.094;2023-04-20T10:23:11;96775.50;;;15.51;51.88
22755;BME280;11544;42.020;23.094;2023-04-20T10:25:40;96777.09;;;15.39;52.01
22755;BME280;11544;42.020;23.094;2023-04-20T10:28:07;96771.94;;;16.08;50.86
22755;BME280;11544;42.020;23.094;2023-04-20T10:30:49;96768.06;;;16.41;49.56
22755;BME280;11544;42.020;23.094;2023-04-20T10:33:17;96772.94;;;16.47;49.47
22755;BME280;11544;42.020;23.094;2023-04-20T10:35:52;96766.41;;;16.52;48.62
22755;BME280;11544;42.020;23.094;2023-04-20T10:38:30;96767.16;;;16.27;48.65
22755;BME280;11544;42.020;23.094;2023-04-20T10:41:05;96759.66;;;16.88;48.72
22755;BME280;11544;42.020;23.094;2023-04-20T10:43:54;96760.19;;;17.06;48.48
22755;BME280;11544;42.020;23.094;2023-04-20T10:46:28;96748.06;;;17.92;48.37
22755;BME280;11544;42.020;23.094;2023-04-20T10:49:00;96755.44;;;17.24;46.79
22755;BME280;11544;42.020;23.094;2023-04-20T10:51:27;96759.41;;;17.55;46.22
22755;BME280;11544;42.020;23.094;2023-04-20T10:56:38;96752.09;;;17.85;46.15
22755;BME280;11544;42.020;23.094;2023-04-20T10:59:31;96752.81;;;17.74;47.32
22755;BME280;11544;42.020;23.094;2023-04-20T11:02:14;96741.25;;;17.27;47.27
22755;BME280;11544;42.020;23.094;2023-04-20T11:04:44;96743.13;;;17.25;48.58
22755;BME280;11544;42.020;23.094;2023-04-20T11:07:11;96739.25;;;17.18;48.60
22755;BME280;11544;42.020;23.094;2023-04-20T11:09:41;96739.84;;;17.34;47.69
22755;BME280;11544;42.020;23.094;2023-04-20T11:12:17;96751.53;;;17.17;48.90
22755;BME280;11544;42.020;23.094;2023-04-20T11:28:53;96722.47;;;18.65;45.59
22755;BME280;11544;42.020;23.094;2023-04-20T11:42:07;96711.59;;;17.86;47.10
22755;BME280;11544;42.020;23.094;2023-04-20T11:47:02;96712.91;;;18.39;45.59
22755;BME280;11544;42.020;23.094;2023-04-20T12:13:21;96687.25;;;18.06;46.29
22755;BME280;11544;42.020;23.094;2023-04-20T12:15:48;96689.66;;;17.48;47.23
22755;BME280;11544;42.020;23.094;2023-04-20T12:18:18;96690.81;;;17.44;47.24
22755;BME280;11544;42.020;23.094;2023-04-20T12:20:56;96687.69;;;17.39;48.12
22755;BME280;11544;42.020;23.094;2023-04-20T12:23:47;96690.34;;;18.00;47.66
22755;BME280;11544;42.020;23.094;2023-04-20T12:26:33;96677.72;;;18.28;46.92
22755;BME280;11544;42.020;23.094;2023-04-20T12:29:20;96665.81;;;17.87;47.51
22755;BME280;11544;42.020;23.094;2023-04-20T12:34:19;96666.53;;;18.71;46.08
22755;BME280;11544;42.020;23.094;2023-04-20T12:37:05;96659.13;;;18.65;45.44
22755;BME280;11544;42.020;23.094;2023-04-20T12:39:46;96656.06;;;18.93;44.49
22755;BME280;11544;42.020;23.094;2023-04-20T12:42:48;96646.44;;;19.26;43.92
22755;BME280;11544;42.020;23.094;2023-04-20T12:45:45;96642.16;;;19.80;43.70
22755;BME280;11544;42.020;23.094;2023-04-20T12:48:56;96641.09;;;19.71;44.24
22755;BME280;11544;42.020;23.094;2023-04-20T12:52:38;96627.78;;;19.50;44.14
22755;BME280;11544;42.020;23.094;2023-04-20T12:55:17;96636.59;;;19.06;44.27
22755;BME280;11544;42.020;23.094;2023-04-20T12:58:03;96640.31;;;18.23;45.32
22755;BME280;11544;42.020;23.094;2023-04-20T13:00:51;96632.09;;;18.03;46.38
22755;BME280;11544;42.020;23.094;2023-04-20T13:03:38;96631.72;;;17.96;47.95
22755;BME280;11544;42.020;23.094;2023-04-20T13:06:26;96629.91;;;17.97;48.29
22755;BME280;11544;42.020;23.094;2023-04-20T13:08:55;96638.41;;;17.52;47.87
22755;BME280;11544;42.020;23.094;2023-04-20T13:11:22;96635.25;;;17.47;47.64
22755;BME280;11544;42.020;23.094;2023-04-20T13:14:19;96636.22;;;17.46;48.49
22755;BME280;11544;42.020;23.094;2023-04-20T13:17:22;96637.03;;;17.23;49.22
22755;BME280;11544;42.020;23.094;2023-04-20T13:23:28;96634.69;;;17.31;49.82
22755;BME280;11544;42.020;23.094;2023-04-20T13:26:18;96626.72;;;17.20;50.18
22755;BME280;11544;42.020;23.094;2023-04-20T13:29:29;96636.44;;;16.93;50.89
22755;BME280;11544;42.020;23.094;2023-04-20T13:32:35;96637.13;;;16.84;51.23
22755;BME280;11544;42.020;23.094;2023-04-20T13:35:41;96637.31;;;16.81;51.75
22755;BME280;11544;42.020;23.094;2023-04-20T13:38:45;96626.13;;;17.40;49.73
22755;BME280;11544;42.020;23.094;2023-04-20T13:42:16;96615.59;;;18.12;49.43
22755;BME280;11544;42.020;23.094;2023-04-20T14:14:45;96599.81;;;18.46;46.29
22755;BME280;11544;42.020;23.094;2023-04-20T14:30:13;96597.78;;;19.29;44.12
22755;BME280;11544;42.020;23.094;2023-04-20T14:32:57;96590.84;;;18.60;43.94
22755;BME280;11544;42.020;23.094;2023-04-20T14:35:26;96596.84;;;18.51;44.33
22755;BME280;11544;42.020;23.094;2023-04-20T14:37:55;96599.28;;;18.18;45.36
22755;BME280;11544;42.020;23.094;2023-04-20T14:41:04;96610.13;;;18.38;47.78
22755;BME280;11544;42.020;23.094;2023-04-20T14:43:32;96610.56;;;17.85;49.01
22755;BME280;11544;42.020;23.094;2023-04-20T14:46:00;96616.66;;;17.38;49.69
22755;BME280;11544;42.020;23.094;2023-04-20T14:48:37;96614.41;;;17.07;51.08
22755;BME280;11544;42.020;23.094;2023-04-20T14:51:12;96626.44;;;16.60;51.13
22755;BME280;11544;42.020;23.094;2023-04-20T14:53:39;96625.56;;;16.08;51.87
22755;BME280;11544;42.020;23.094;2023-04-20T14:56:06;96625.09;;;15.89;52.86
22755;BME280;11544;42.020;23.094;2023-04-20T14:58:33;96622.16;;;15.94;53.23
22755;BME280;11544;42.020;23.094;2023-04-20T15:01:02;96618.09;;;16.15;53.47
22755;BME280;11544;42.020;23.094;2023-04-20T15:03:29;96620.44;;;15.80;53.50
22755;BME280;11544;42.020;23.094;2023-04-20T15:05:59;96614.25;;;16.21;52.37
22755;BME280;11544;42.020;23.094;2023-04-20T15:08:26;96628.75;;;16.26;52.23
22755;BME280;11544;42.020;23.094;2023-04-20T15:10:53;96617.28;;;16.53;51.99
22755;BME280;11544;42.020;23.094;2023-04-20T15:13:23;96624.56;;;16.49;51.56
22755;BME280;11544;42.020;23.094;2023-04-20T15:15:51;96616.66;;;16.24;51.87
22755;BME280;11544;42.020;23.094;2023-04-20T15:18:20;96612.69;;;16.57;51.21
22755;BME280;11544;42.020;23.094;2023-04-20T15:20:54;96610.88;;;16.83;50.63
22755;BME280;11544;42.020;23.094;2023-04-20T15:23:29;96598.41;;;17.10;48.54
22755;BME280;11544;42.020;23.094;2023-04-20T15:53:25;96609.88;;;17.46;45.74
22755;BME280;11544;42.020;23.094;2023-04-20T15:55:58;96605.69;;;17.44;45.96
22755;BME280;11544;42.020;23.094;2023-04-20T15:58:25;96603.38;;;17.39;47.26